sensor_id;sensor_type;location;lat;lon;timestamp;P1;durP1;ratioP1;P2;durP2;ratioP2
20036;SDS011;10179;42.640;23.312;2022-08-19T00:01:45;4.22;;;3.78;;
20036;SDS011;10179;42.640;23.312;2022-08-19T00:04:13;5.50;;;3.85;;
20036;SDS011;10179;42.640;23.312;2022-08-19T00:06:41;7.47;;;3.97;;
20036;SDS011;10179;42.640;23.312;2022-08-19T00:09:08;8.77;;;3.85;;
20036;SDS011;10179;42.640;23.312;2022-08-19T00:11:36;7.47;;;3.58;;
20036;SDS011;10179;42.640;23.312;2022-08-19T00:14:03;4.88;;;3.88;;
20036;SDS011;10179;42.640;23.312;2022-08-19T00:16:30;4.65;;;3.72;;
20036;SDS011;10179;42.640;23.312;2022-08-19T00:18:55;6.60;;;4.13;;
20036;SDS011;10179;42.640;23.312;2022-08-19T00:21:22;8.10;;;3.70;;
20036;SDS011;10179;42.640;23.312;2022-08-19T00:23:48;6.85;;;4.18;;
20036;SDS011;10179;42.640;23.312;2022-08-19T00:26:13;6.43;;;3.78;;
20036;SDS011;10179;42.640;23.312;2022-08-19T00:28:39;10.10;;;4.13;;
20036;SDS011;10179;42.640;23.312;2022-08-19T00:31:05;4.85;;;4.03;;
20036;SDS011;10179;42.640;23.312;2022-08-19T00:33:32;5.10;;;3.72;;
20036;SDS011;10179;42.640;23.312;2022-08-19T00:35:59;7.38;;;4.22;;
20036;SDS011;10179;42.640;23.312;2022-08-19T00:38:25;5.45;;;4.28;;
20036;SDS011;10179;42.640;23.312;2022-08-19T00:40:51;5.32;;;3.90;;
20036;SDS011;10179;42.640;23.312;2022-08-19T00:43:20;4.97;;;3.88;;
20036;SDS011;10179;42.640;23.312;2022-08-19T00:45:48;6.22;;;4.35;;
20036;SDS011;10179;42.640;23.312;2022-08-19T00:48:15;4.75;;;3.72;;
20036;SDS011;10179;42.640;23.312;2022-08-19T00:50:42;10.60;;;4.03;;
20036;SDS011;10179;42.640;23.312;2022-08-19T00:53:12;4.45;;;4.03;;
20036;SDS011;10179;42.640;23.312;2022-08-19T00:55:40;5.78;;;3.88;;
20036;SDS011;10179;42.640;23.312;2022-08-19T00:58:11;4.75;;;3.88;;
20036;SDS011;10179;42.640;23.312;2022-08-19T01:00:38;5.47;;;4.40;;
20036;SDS011;10179;42.640;23.312;2022-08-19T01:03:08;6.30;;;4.28;;
20036;SDS011;10179;42.640;23.312;2022-08-19T01:05:36;4.80;;;4.13;;
20036;SDS011;10179;42.640;23.312;2022-08-19T01:08:04;6.90;;;4.43;;
20036;SDS011;10179;42.640;23.312;2022-08-19T01:10:38;5.07;;;4.10;;
20036;SDS011;10179;42.640;23.312;2022-08-19T01:13:06;4.75;;;4.05;;
20036;SDS011;10179;42.640;23.312;2022-08-19T01:15:34;4.63;;;4.07;;
20036;SDS011;10179;42.640;23.312;2022-08-19T01:18:09;4.85;;;4.32;;
20036;SDS011;10179;42.640;23.312;2022-08-19T01:20:37;5.00;;;3.90;;
20036;SDS011;10179;42.640;23.312;2022-08-19T01:23:03;5.15;;;4.10;;
20036;SDS011;10179;42.640;23.312;2022-08-19T01:25:39;7.00;;;3.78;;
20036;SDS011;10179;42.640;23.312;2022-08-19T01:28:21;4.72;;;3.70;;
20036;SDS011;10179;42.640;23.312;2022-08-19T01:30:53;5.97;;;4.30;;
20036;SDS011;10179;42.640;23.312;2022-08-19T01:33:19;4.90;;;3.65;;
20036;SDS011;10179;42.640;23.312;2022-08-19T01:35:46;5.90;;;4.22;;
20036;SDS011;10179;42.640;23.312;2022-08-19T01:38:26;5.35;;;3.75;;
20036;SDS011;10179;42.640;23.312;2022-08-19T01:40:53;6.03;;;4.18;;
20036;SDS011;10179;42.640;23.312;2022-08-19T01:43:18;6.72;;;4.15;;
20036;SDS011;10179;42.640;23.312;2022-08-19T01:45:45;5.30;;;4.30;;
20036;SDS011;10179;42.640;23.312;2022-08-19T01:48:11;6.72;;;4.03;;
20036;SDS011;10179;42.640;23.312;2022-08-19T01:50:38;6.32;;;4.43;;
20036;SDS011;10179;42.640;23.312;2022-08-19T01:53:05;8.52;;;4.80;;
20036;SDS011;10179;42.640;23.312;2022-08-19T01:55:32;4.85;;;4.35;;
20036;SDS011;10179;42.640;23.312;2022-08-19T01:57:59;7.93;;;4.50;;
20036;SDS011;10179;42.640;23.312;2022-08-19T02:00:28;8.48;;;4.63;;
20036;SDS011;10179;42.640;23.312;2022-08-19T02:02:56;5.45;;;4.65;;
20036;SDS011;10179;42.640;23.312;2022-08-19T02:05:21;6.70;;;4.45;;
20036;SDS011;10179;42.640;23.312;2022-08-19T02:07:47;6.32;;;4.53;;
20036;SDS011;10179;42.640;23.312;2022-08-19T02:10:15;8.60;;;4.90;;
20036;SDS011;10179;42.640;23.312;2022-08-19T02:12:43;6.40;;;4.50;;
20036;SDS011;10179;42.640;23.312;2022-08-19T02:15:09;4.90;;;4.35;;
20036;SDS011;10179;42.640;23.312;2022-08-19T02:17:35;6.47;;;3.67;;
20036;SDS011;10179;42.640;23.312;2022-08-19T02:20:00;6.22;;;3.78;;
20036;SDS011;10179;42.640;23.312;2022-08-19T02:22:26;6.35;;;4.30;;
20036;SDS011;10179;42.640;23.312;2022-08-19T02:24:52;6.35;;;4.50;;
20036;SDS011;10179;42.640;23.312;2022-08-19T02:27:18;4.25;;;3.85;;
20036;SDS011;10179;42.640;23.312;2022-08-19T02:29:45;5.68;;;4.22;;
20036;SDS011;10179;42.640;23.312;2022-08-19T02:32:12;8.13;;;4.70;;
20036;SDS011;10179;42.640;23.312;2022-08-19T02:34:38;5.47;;;4.38;;
20036;SDS011;10179;42.640;23.312;2022-08-19T02:37:04;8.07;;;4.25;;
20036;SDS011;10179;42.640;23.312;2022-08-19T02:39:29;5.28;;;4.40;;
20036;SDS011;10179;42.640;23.312;2022-08-19T02:41:55;5.80;;;4.03;;
20036;SDS011;10179;42.640;23.312;2022-08-19T02:44:20;8.32;;;5.07;;
20036;SDS011;10179;42.640;23.312;2022-08-19T02:46:46;7.78;;;4.43;;
20036;SDS011;10179;42.640;23.312;2022-08-19T02:49:14;7.20;;;4.10;;
20036;SDS011;10179;42.640;23.312;2022-08-19T02:51:42;5.57;;;4.57;;
20036;SDS011;10179;42.640;23.312;2022-08-19T02:54:10;5.60;;;4.57;;
20036;SDS011;10179;42.640;23.312;2022-08-19T02:56:38;7.30;;;4.40;;
20036;SDS011;10179;42.640;23.312;2022-08-19T02:59:05;7.22;;;5.38;;
20036;SDS011;10179;42.640;23.312;2022-08-19T03:01:33;7.53;;;5.15;;
20036;SDS011;10179;42.640;23.312;2022-08-19T03:04:00;7.05;;;4.97;;
20036;SDS011;10179;42.640;23.312;2022-08-19T03:06:27;7.97;;;4.88;;
20036;SDS011;10179;42.640;23.312;2022-08-19T03:08:53;6.65;;;4.30;;
20036;SDS011;10179;42.640;23.312;2022-08-19T03:11:22;6.07;;;4.35;;
20036;SDS011;10179;42.640;23.312;2022-08-19T03:13:49;8.65;;;4.63;;
20036;SDS011;10179;42.640;23.312;2022-08-19T03:16:15;7.28;;;4.45;;
20036;SDS011;10179;42.640;23.312;2022-08-19T03:18:42;6.10;;;4.88;;
20036;SDS011;10179;42.640;23.312;2022-08-19T03:21:08;5.68;;;4.68;;
20036;SDS011;10179;42.640;23.312;2022-08-19T03:23:33;5.50;;;4.40;;
20036;SDS011;10179;42.640;23.312;2022-08-19T03:26:02;7.00;;;4.75;;
20036;SDS011;10179;42.640;23.312;2022-08-19T03:28:29;5.00;;;4.28;;
20036;SDS011;10179;42.640;23.312;2022-08-19T03:31:00;7.25;;;5.60;;
20036;SDS011;10179;42.640;23.312;2022-08-19T03:33:30;6.75;;;4.95;;
20036;SDS011;10179;42.640;23.312;2022-08-19T03:36:09;9.20;;;5.28;;
20036;SDS011;10179;42.640;23.312;2022-08-19T03:38:39;7.28;;;5.45;;
20036;SDS011;10179;42.640;23.312;2022-08-19T03:41:08;8.75;;;5.85;;
20036;SDS011;10179;42.640;23.312;2022-08-19T03:43:37;7.65;;;5.30;;
20036;SDS011;10179;42.640;23.312;2022-08-19T03:46:04;7.75;;;5.32;;
20036;SDS011;10179;42.640;23.312;2022-08-19T03:48:33;8.20;;;4.90;;
20036;SDS011;10179;42.640;23.312;2022-08-19T03:51:00;10.02;;;5.00;;
20036;SDS011;10179;42.640;23.312;2022-08-19T03:53:27;10.98;;;5.20;;
20036;SDS011;10179;42.640;23.312;2022-08-19T03:55:54;8.65;;;5.03;;
20036;SDS011;10179;42.640;23.312;2022-08-19T03:58:21;7.32;;;5.78;;
20036;SDS011;10179;42.640;23.312;2022-08-19T04:00:47;10.95;;;5.50;;
20036;SDS011;10179;42.640;23.312;2022-08-19T04:03:12;7.93;;;5.13;;
20036;SDS011;10179;42.640;23.312;2022-08-19T04:05:38;8.73;;;5.57;;
20036;SDS011;10179;42.640;23.312;2022-08-19T04:08:03;7.63;;;5.53;;
20036;SDS011;10179;42.640;23.312;2022-08-19T04:10:31;10.85;;;5.68;;
20036;SDS011;10179;42.640;23.312;2022-08-19T04:13:00;10.93;;;5.80;;
20036;SDS011;10179;42.640;23.312;2022-08-19T04:15:26;8.13;;;5.60;;
20036;SDS011;10179;42.640;23.312;2022-08-19T04:17:53;12.65;;;6.15;;
20036;SDS011;10179;42.640;23.312;2022-08-19T04:20:19;9.55;;;6.05;;
20036;SDS011;10179;42.640;23.312;2022-08-19T04:22:45;6.63;;;5.13;;
20036;SDS011;10179;42.640;23.312;2022-08-19T04:25:10;12.30;;;5.90;;
20036;SDS011;10179;42.640;23.312;2022-08-19T04:27:36;8.77;;;5.60;;
20036;SDS011;10179;42.640;23.312;2022-08-19T04:30:01;8.48;;;5.53;;
20036;SDS011;10179;42.640;23.312;2022-08-19T04:32:27;8.63;;;5.47;;
20036;SDS011;10179;42.640;23.312;2022-08-19T04:34:52;10.90;;;5.60;;
20036;SDS011;10179;42.640;23.312;2022-08-19T04:37:21;9.80;;;5.32;;
20036;SDS011;10179;42.640;23.312;2022-08-19T04:39:46;10.07;;;5.38;;
20036;SDS011;10179;42.640;23.312;2022-08-19T04:42:30;8.23;;;5.38;;
20036;SDS011;10179;42.640;23.312;2022-08-19T04:45:05;10.15;;;5.70;;
20036;SDS011;10179;42.640;23.312;2022-08-19T04:47:34;11.13;;;5.20;;
20036;SDS011;10179;42.640;23.312;2022-08-19T04:50:01;8.43;;;5.60;;
20036;SDS011;10179;42.640;23.312;2022-08-19T04:52:27;8.25;;;5.65;;
20036;SDS011;10179;42.640;23.312;2022-08-19T04:54:53;9.00;;;6.15;;
20036;SDS011;10179;42.640;23.312;2022-08-19T04:57:20;18.15;;;6.82;;
20036;SDS011;10179;42.640;23.312;2022-08-19T04:59:46;23.67;;;6.97;;
20036;SDS011;10179;42.640;23.312;2022-08-19T05:02:11;17.95;;;6.80;;
20036;SDS011;10179;42.640;23.312;2022-08-19T05:04:37;10.50;;;5.88;;
20036;SDS011;10179;42.640;23.312;2022-08-19T05:07:04;11.90;;;7.03;;
20036;SDS011;10179;42.640;23.312;2022-08-19T05:09:30;17.95;;;6.90;;
20036;SDS011;10179;42.640;23.312;2022-08-19T05:11:56;11.63;;;6.60;;
20036;SDS011;10179;42.640;23.312;2022-08-19T05:14:22;8.98;;;5.88;;
20036;SDS011;10179;42.640;23.312;2022-08-19T05:16:48;8.13;;;6.32;;
20036;SDS011;10179;42.640;23.312;2022-08-19T05:19:13;14.88;;;6.15;;
20036;SDS011;10179;42.640;23.312;2022-08-19T05:21:59;12.23;;;6.40;;
20036;SDS011;10179;42.640;23.312;2022-08-19T05:24:44;15.45;;;6.38;;
20036;SDS011;10179;42.640;23.312;2022-08-19T05:27:09;10.45;;;6.60;;
20036;SDS011;10179;42.640;23.312;2022-08-19T05:29:34;10.60;;;6.35;;
20036;SDS011;10179;42.640;23.312;2022-08-19T05:32:00;14.52;;;6.80;;
20036;SDS011;10179;42.640;23.312;2022-08-19T05:34:30;17.75;;;7.07;;
20036;SDS011;10179;42.640;23.312;2022-08-19T05:36:56;16.27;;;7.93;;
20036;SDS011;10179;42.640;23.312;2022-08-19T05:39:24;14.88;;;7.88;;
20036;SDS011;10179;42.640;23.312;2022-08-19T05:41:54;13.75;;;7.05;;
20036;SDS011;10179;42.640;23.312;2022-08-19T05:44:23;16.85;;;6.85;;
20036;SDS011;10179;42.640;23.312;2022-08-19T05:46:50;10.35;;;7.15;;
20036;SDS011;10179;42.640;23.312;2022-08-19T05:49:19;16.27;;;6.50;;
20036;SDS011;10179;42.640;23.312;2022-08-19T05:51:46;11.90;;;6.57;;
20036;SDS011;10179;42.640;23.312;2022-08-19T05:54:12;17.70;;;5.72;;
20036;SDS011;10179;42.640;23.312;2022-08-19T05:56:39;10.05;;;5.68;;
20036;SDS011;10179;42.640;23.312;2022-08-19T05:59:05;9.23;;;5.65;;
20036;SDS011;10179;42.640;23.312;2022-08-19T06:01:35;14.55;;;6.30;;
20036;SDS011;10179;42.640;23.312;2022-08-19T06:04:03;10.40;;;6.05;;
20036;SDS011;10179;42.640;23.312;2022-08-19T06:06:28;17.35;;;6.50;;
20036;SDS011;10179;42.640;23.312;2022-08-19T06:08:54;12.98;;;6.47;;
20036;SDS011;10179;42.640;23.312;2022-08-19T06:11:23;15.35;;;6.32;;
20036;SDS011;10179;42.640;23.312;2022-08-19T06:13:57;10.52;;;5.78;;
20036;SDS011;10179;42.640;23.312;2022-08-19T06:16:24;10.45;;;5.40;;
20036;SDS011;10179;42.640;23.312;2022-08-19T06:18:53;10.23;;;5.57;;
20036;SDS011;10179;42.640;23.312;2022-08-19T06:21:23;9.70;;;5.18;;
20036;SDS011;10179;42.640;23.312;2022-08-19T06:23:50;7.70;;;5.50;;
20036;SDS011;10179;42.640;23.312;2022-08-19T06:26:17;10.48;;;4.78;;
20036;SDS011;10179;42.640;23.312;2022-08-19T06:28:44;8.77;;;4.63;;
20036;SDS011;10179;42.640;23.312;2022-08-19T06:31:23;7.63;;;4.60;;
20036;SDS011;10179;42.640;23.312;2022-08-19T06:33:50;8.05;;;5.53;;
20036;SDS011;10179;42.640;23.312;2022-08-19T06:36:26;8.45;;;4.82;;
20036;SDS011;10179;42.640;23.312;2022-08-19T06:38:56;7.32;;;5.00;;
20036;SDS011;10179;42.640;23.312;2022-08-19T06:41:22;8.20;;;5.40;;
20036;SDS011;10179;42.640;23.312;2022-08-19T06:43:49;11.45;;;5.57;;
20036;SDS011;10179;42.640;23.312;2022-08-19T06:46:15;7.80;;;5.60;;
20036;SDS011;10179;42.640;23.312;2022-08-19T06:48:43;11.27;;;6.25;;
20036;SDS011;10179;42.640;23.312;2022-08-19T06:51:09;11.50;;;5.97;;
20036;SDS011;10179;42.640;23.312;2022-08-19T06:53:35;15.50;;;6.25;;
20036;SDS011;10179;42.640;23.312;2022-08-19T06:56:01;9.82;;;5.90;;
20036;SDS011;10179;42.640;23.312;2022-08-19T06:58:30;11.38;;;5.85;;
20036;SDS011;10179;42.640;23.312;2022-08-19T07:00:58;10.18;;;5.38;;
20036;SDS011;10179;42.640;23.312;2022-08-19T07:03:29;8.23;;;5.43;;
20036;SDS011;10179;42.640;23.312;2022-08-19T07:05:56;11.38;;;5.22;;
20036;SDS011;10179;42.640;23.312;2022-08-19T07:08:21;8.68;;;5.35;;
20036;SDS011;10179;42.640;23.312;2022-08-19T07:10:47;8.15;;;5.20;;
20036;SDS011;10179;42.640;23.312;2022-08-19T07:13:14;8.52;;;4.93;;
20036;SDS011;10179;42.640;23.312;2022-08-19T07:15:39;8.80;;;5.25;;
20036;SDS011;10179;42.640;23.312;2022-08-19T07:18:05;9.27;;;5.30;;
20036;SDS011;10179;42.640;23.312;2022-08-19T07:20:30;13.93;;;5.68;;
20036;SDS011;10179;42.640;23.312;2022-08-19T07:22:57;8.13;;;4.95;;
20036;SDS011;10179;42.640;23.312;2022-08-19T07:25:22;8.20;;;4.90;;
20036;SDS011;10179;42.640;23.312;2022-08-19T07:27:50;16.33;;;5.20;;
20036;SDS011;10179;42.640;23.312;2022-08-19T07:30:16;6.30;;;4.60;;
20036;SDS011;10179;42.640;23.312;2022-08-19T07:32:42;9.18;;;5.13;;
20036;SDS011;10179;42.640;23.312;2022-08-19T07:35:08;6.00;;;4.75;;
20036;SDS011;10179;42.640;23.312;2022-08-19T07:37:34;10.20;;;5.07;;
20036;SDS011;10179;42.640;23.312;2022-08-19T07:40:03;7.57;;;4.60;;
20036;SDS011;10179;42.640;23.312;2022-08-19T07:42:30;7.40;;;5.22;;
20036;SDS011;10179;42.640;23.312;2022-08-19T07:44:56;6.75;;;4.82;;
20036;SDS011;10179;42.640;23.312;2022-08-19T07:47:23;10.15;;;5.20;;
20036;SDS011;10179;42.640;23.312;2022-08-19T07:49:48;8.05;;;4.80;;
20036;SDS011;10179;42.640;23.312;2022-08-19T07:52:14;9.95;;;5.00;;
20036;SDS011;10179;42.640;23.312;2022-08-19T07:54:40;17.00;;;6.38;;
20036;SDS011;10179;42.640;23.312;2022-08-19T07:57:06;10.10;;;5.00;;
20036;SDS011;10179;42.640;23.312;2022-08-19T07:59:33;8.38;;;4.70;;
20036;SDS011;10179;42.640;23.312;2022-08-19T08:01:58;7.72;;;4.22;;
20036;SDS011;10179;42.640;23.312;2022-08-19T08:04:25;10.27;;;4.63;;
20036;SDS011;10179;42.640;23.312;2022-08-19T08:07:10;8.20;;;4.47;;
20036;SDS011;10179;42.640;23.312;2022-08-19T08:09:54;13.55;;;4.85;;
20036;SDS011;10179;42.640;23.312;2022-08-19T08:12:21;6.22;;;4.22;;
20036;SDS011;10179;42.640;23.312;2022-08-19T08:14:54;13.60;;;4.53;;
20036;SDS011;10179;42.640;23.312;2022-08-19T08:17:23;6.20;;;4.13;;
20036;SDS011;10179;42.640;23.312;2022-08-19T08:19:51;8.40;;;4.53;;
20036;SDS011;10179;42.640;23.312;2022-08-19T08:22:18;10.25;;;4.40;;
20036;SDS011;10179;42.640;23.312;2022-08-19T08:25:19;9.43;;;4.45;;
20036;SDS011;10179;42.640;23.312;2022-08-19T08:27:45;7.15;;;4.78;;
20036;SDS011;10179;42.640;23.312;2022-08-19T08:30:13;5.18;;;3.70;;
20036;SDS011;10179;42.640;23.312;2022-08-19T08:32:41;8.77;;;3.60;;
20036;SDS011;10179;42.640;23.312;2022-08-19T08:35:08;7.85;;;3.58;;
20036;SDS011;10179;42.640;23.312;2022-08-19T08:37:36;7.65;;;3.85;;
20036;SDS011;10179;42.640;23.312;2022-08-19T08:40:07;13.30;;;4.07;;
20036;SDS011;10179;42.640;23.312;2022-08-19T08:42:45;9.80;;;4.13;;
20036;SDS011;10179;42.640;23.312;2022-08-19T08:45:19;9.05;;;3.70;;
20036;SDS011;10179;42.640;23.312;2022-08-19T08:47:47;5.32;;;2.60;;
20036;SDS011;10179;42.640;23.312;2022-08-19T08:50:18;8.68;;;3.08;;
20036;SDS011;10179;42.640;23.312;2022-08-19T08:52:49;6.57;;;3.28;;
20036;SDS011;10179;42.640;23.312;2022-08-19T08:55:18;7.95;;;3.15;;
20036;SDS011;10179;42.640;23.312;2022-08-19T09:00:35;5.88;;;2.85;;
20036;SDS011;10179;42.640;23.312;2022-08-19T09:03:02;5.95;;;2.97;;
20036;SDS011;10179;42.640;23.312;2022-08-19T09:08:15;6.60;;;2.97;;
20036;SDS011;10179;42.640;23.312;2022-08-19T09:10:52;7.43;;;3.10;;
20036;SDS011;10179;42.640;23.312;2022-08-19T09:15:51;5.65;;;3.15;;
20036;SDS011;10179;42.640;23.312;2022-08-19T09:18:23;4.05;;;2.70;;
20036;SDS011;10179;42.640;23.312;2022-08-19T09:20:48;10.57;;;3.22;;
20036;SDS011;10179;42.640;23.312;2022-08-19T09:23:14;6.28;;;2.67;;
20036;SDS011;10179;42.640;23.312;2022-08-19T09:25:39;2.83;;;2.30;;
20036;SDS011;10179;42.640;23.312;2022-08-19T09:28:05;3.63;;;2.58;;
20036;SDS011;10179;42.640;23.312;2022-08-19T09:30:33;6.20;;;2.53;;
20036;SDS011;10179;42.640;23.312;2022-08-19T09:33:04;8.70;;;2.60;;
20036;SDS011;10179;42.640;23.312;2022-08-19T09:35:30;3.30;;;2.33;;
20036;SDS011;10179;42.640;23.312;2022-08-19T09:37:57;3.38;;;2.50;;
20036;SDS011;10179;42.640;23.312;2022-08-19T09:40:23;2.83;;;2.30;;
20036;SDS011;10179;42.640;23.312;2022-08-19T09:42:50;5.82;;;2.63;;
20036;SDS011;10179;42.640;23.312;2022-08-19T09:45:17;8.20;;;2.42;;
20036;SDS011;10179;42.640;23.312;2022-08-19T09:47:46;5.47;;;2.67;;
20036;SDS011;10179;42.640;23.312;2022-08-19T09:50:12;5.43;;;2.53;;
20036;SDS011;10179;42.640;23.312;2022-08-19T09:52:38;6.80;;;2.83;;
20036;SDS011;10179;42.640;23.312;2022-08-19T09:55:04;4.57;;;2.90;;
20036;SDS011;10179;42.640;23.312;2022-08-19T09:57:31;5.38;;;2.40;;
20036;SDS011;10179;42.640;23.312;2022-08-19T09:59:57;5.57;;;2.63;;
20036;SDS011;10179;42.640;23.312;2022-08-19T10:02:22;4.18;;;3.15;;
20036;SDS011;10179;42.640;23.312;2022-08-19T10:04:47;4.05;;;2.88;;
20036;SDS011;10179;42.640;23.312;2022-08-19T10:07:31;3.92;;;2.67;;
20036;SDS011;10179;42.640;23.312;2022-08-19T10:09:57;4.50;;;2.88;;
20036;SDS011;10179;42.640;23.312;2022-08-19T10:12:22;8.60;;;2.65;;
20036;SDS011;10179;42.640;23.312;2022-08-19T10:14:48;6.53;;;2.83;;
20036;SDS011;10179;42.640;23.312;2022-08-19T10:17:13;5.68;;;3.08;;
20036;SDS011;10179;42.640;23.312;2022-08-19T10:19:39;5.03;;;2.72;;
20036;SDS011;10179;42.640;23.312;2022-08-19T10:22:05;6.78;;;3.28;;
20036;SDS011;10179;42.640;23.312;2022-08-19T10:24:32;4.07;;;2.65;;
20036;SDS011;10179;42.640;23.312;2022-08-19T10:26:59;4.45;;;3.28;;
20036;SDS011;10179;42.640;23.312;2022-08-19T10:29:28;7.10;;;2.85;;
20036;SDS011;10179;42.640;23.312;2022-08-19T10:31:54;7.50;;;3.25;;
20036;SDS011;10179;42.640;23.312;2022-08-19T10:34:21;4.30;;;2.80;;
20036;SDS011;10179;42.640;23.312;2022-08-19T10:36:46;8.98;;;2.80;;
20036;SDS011;10179;42.640;23.312;2022-08-19T10:39:12;5.82;;;3.15;;
20036;SDS011;10179;42.640;23.312;2022-08-19T10:41:38;4.68;;;2.75;;
20036;SDS011;10179;42.640;23.312;2022-08-19T10:44:05;6.78;;;3.67;;
20036;SDS011;10179;42.640;23.312;2022-08-19T10:46:33;6.10;;;3.28;;
20036;SDS011;10179;42.640;23.312;2022-08-19T10:49:01;5.72;;;3.40;;
20036;SDS011;10179;42.640;23.312;2022-08-19T10:51:28;6.57;;;2.88;;
20036;SDS011;10179;42.640;23.312;2022-08-19T10:54:12;6.20;;;3.30;;
20036;SDS011;10179;42.640;23.312;2022-08-19T10:56:37;5.03;;;3.13;;
20036;SDS011;10179;42.640;23.312;2022-08-19T11:01:47;4.93;;;3.42;;
20036;SDS011;10179;42.640;23.312;2022-08-19T11:04:13;4.20;;;2.80;;
20036;SDS011;10179;42.640;23.312;2022-08-19T11:06:42;5.60;;;3.10;;
20036;SDS011;10179;42.640;23.312;2022-08-19T11:09:10;4.57;;;3.72;;
20036;SDS011;10179;42.640;23.312;2022-08-19T11:11:37;5.28;;;3.78;;
20036;SDS011;10179;42.640;23.312;2022-08-19T11:14:07;6.70;;;4.18;;
20036;SDS011;10179;42.640;23.312;2022-08-19T11:16:39;5.68;;;3.40;;
20036;SDS011;10179;42.640;23.312;2022-08-19T11:19:05;8.38;;;3.50;;
20036;SDS011;10179;42.640;23.312;2022-08-19T11:21:37;8.30;;;3.63;;
20036;SDS011;10179;42.640;23.312;2022-08-19T11:24:09;10.15;;;3.60;;
20036;SDS011;10179;42.640;23.312;2022-08-19T11:26:37;4.38;;;3.42;;
20036;SDS011;10179;42.640;23.312;2022-08-19T11:29:05;5.55;;;3.33;;
20036;SDS011;10179;42.640;23.312;2022-08-19T11:31:36;6.18;;;3.55;;
20036;SDS011;10179;42.640;23.312;2022-08-19T11:34:04;7.20;;;3.70;;
20036;SDS011;10179;42.640;23.312;2022-08-19T11:36:32;5.22;;;3.40;;
20036;SDS011;10179;42.640;23.312;2022-08-19T11:38:58;6.47;;;3.30;;
20036;SDS011;10179;42.640;23.312;2022-08-19T11:41:24;5.63;;;3.63;;
20036;SDS011;10179;42.640;23.312;2022-08-19T11:43:51;3.90;;;3.20;;
20036;SDS011;10179;42.640;23.312;2022-08-19T11:46:18;3.60;;;3.28;;
20036;SDS011;10179;42.640;23.312;2022-08-19T11:48:44;8.90;;;3.20;;
20036;SDS011;10179;42.640;23.312;2022-08-19T11:51:11;5.78;;;3.53;;
20036;SDS011;10179;42.640;23.312;2022-08-19T11:53:38;8.32;;;3.65;;
20036;SDS011;10179;42.640;23.312;2022-08-19T11:56:05;6.47;;;3.25;;
20036;SDS011;10179;42.640;23.312;2022-08-19T11:58:32;5.35;;;3.47;;
20036;SDS011;10179;42.640;23.312;2022-08-19T12:00:59;3.97;;;3.38;;
20036;SDS011;10179;42.640;23.312;2022-08-19T12:03:24;8.55;;;3.55;;
20036;SDS011;10179;42.640;23.312;2022-08-19T12:05:50;4.65;;;3.05;;
20036;SDS011;10179;42.640;23.312;2022-08-19T12:08:16;8.32;;;3.88;;
20036;SDS011;10179;42.640;23.312;2022-08-19T12:10:42;5.43;;;3.17;;
20036;SDS011;10179;42.640;23.312;2022-08-19T12:13:09;6.47;;;3.70;;
20036;SDS011;10179;42.640;23.312;2022-08-19T12:15:38;7.03;;;3.60;;
20036;SDS011;10179;42.640;23.312;2022-08-19T12:18:08;6.00;;;4.43;;
20036;SDS011;10179;42.640;23.312;2022-08-19T12:20:38;7.70;;;3.83;;
20036;SDS011;10179;42.640;23.312;2022-08-19T12:23:05;10.30;;;3.83;;
20036;SDS011;10179;42.640;23.312;2022-08-19T12:25:34;5.85;;;4.00;;
20036;SDS011;10179;42.640;23.312;2022-08-19T12:28:00;4.38;;;3.45;;
20036;SDS011;10179;42.640;23.312;2022-08-19T12:30:26;4.50;;;3.58;;
20036;SDS011;10179;42.640;23.312;2022-08-19T12:32:52;4.72;;;3.40;;
20036;SDS011;10179;42.640;23.312;2022-08-19T12:35:17;5.65;;;4.18;;
20036;SDS011;10179;42.640;23.312;2022-08-19T12:37:45;6.78;;;4.22;;
20036;SDS011;10179;42.640;23.312;2022-08-19T12:40:11;9.02;;;3.90;;
20036;SDS011;10179;42.640;23.312;2022-08-19T12:42:38;4.32;;;3.40;;
20036;SDS011;10179;42.640;23.312;2022-08-19T12:45:08;5.60;;;3.83;;
20036;SDS011;10179;42.640;23.312;2022-08-19T12:47:34;5.20;;;4.03;;
20036;SDS011;10179;42.640;23.312;2022-08-19T12:50:00;4.90;;;3.85;;
20036;SDS011;10179;42.640;23.312;2022-08-19T12:52:26;7.13;;;3.70;;
20036;SDS011;10179;42.640;23.312;2022-08-19T12:54:53;3.50;;;3.20;;
20036;SDS011;10179;42.640;23.312;2022-08-19T12:57:24;7.25;;;3.75;;
20036;SDS011;10179;42.640;23.312;2022-08-19T12:59:56;8.82;;;4.35;;
20036;SDS011;10179;42.640;23.312;2022-08-19T13:02:22;6.53;;;3.72;;
20036;SDS011;10179;42.640;23.312;2022-08-19T13:04:47;6.35;;;3.75;;
20036;SDS011;10179;42.640;23.312;2022-08-19T13:07:13;8.40;;;3.70;;
20036;SDS011;10179;42.640;23.312;2022-08-19T13:09:38;6.03;;;3.83;;
20036;SDS011;10179;42.640;23.312;2022-08-19T13:12:06;7.65;;;4.07;;
20036;SDS011;10179;42.640;23.312;2022-08-19T13:14:33;6.95;;;3.60;;
20036;SDS011;10179;42.640;23.312;2022-08-19T13:17:00;6.68;;;3.58;;
20036;SDS011;10179;42.640;23.312;2022-08-19T13:19:25;7.68;;;3.63;;
20036;SDS011;10179;42.640;23.312;2022-08-19T13:21:51;6.90;;;3.33;;
20036;SDS011;10179;42.640;23.312;2022-08-19T13:24:18;5.90;;;3.85;;
20036;SDS011;10179;42.640;23.312;2022-08-19T13:26:44;7.57;;;3.80;;
20036;SDS011;10179;42.640;23.312;2022-08-19T13:29:09;4.55;;;3.47;;
20036;SDS011;10179;42.640;23.312;2022-08-19T13:31:53;7.70;;;3.60;;
20036;SDS011;10179;42.640;23.312;2022-08-19T13:34:37;12.50;;;4.07;;
20036;SDS011;10179;42.640;23.312;2022-08-19T13:37:04;6.93;;;3.60;;
20036;SDS011;10179;42.640;23.312;2022-08-19T13:39:31;6.05;;;3.58;;
20036;SDS011;10179;42.640;23.312;2022-08-19T13:41:57;7.07;;;3.42;;
20036;SDS011;10179;42.640;23.312;2022-08-19T13:44:25;6.20;;;3.83;;
20036;SDS011;10179;42.640;23.312;2022-08-19T13:46:54;6.55;;;3.60;;
20036;SDS011;10179;42.640;23.312;2022-08-19T13:49:24;7.35;;;3.53;;
20036;SDS011;10179;42.640;23.312;2022-08-19T13:51:50;5.18;;;3.92;;
20036;SDS011;10179;42.640;23.312;2022-08-19T13:54:15;6.50;;;3.35;;
20036;SDS011;10179;42.640;23.312;2022-08-19T13:56:42;6.40;;;3.53;;
20036;SDS011;10179;42.640;23.312;2022-08-19T13:59:09;7.07;;;3.88;;
20036;SDS011;10179;42.640;23.312;2022-08-19T14:01:34;5.20;;;3.60;;
20036;SDS011;10179;42.640;23.312;2022-08-19T14:04:01;4.90;;;3.95;;
20036;SDS011;10179;42.640;23.312;2022-08-19T14:06:27;7.43;;;4.20;;
20036;SDS011;10179;42.640;23.312;2022-08-19T14:08:53;6.90;;;3.63;;
20036;SDS011;10179;42.640;23.312;2022-08-19T14:11:18;13.10;;;4.43;;
20036;SDS011;10179;42.640;23.312;2022-08-19T14:13:44;6.32;;;3.88;;
20036;SDS011;10179;42.640;23.312;2022-08-19T14:16:10;5.25;;;3.45;;
20036;SDS011;10179;42.640;23.312;2022-08-19T14:18:36;6.65;;;3.83;;
20036;SDS011;10179;42.640;23.312;2022-08-19T14:21:03;4.03;;;3.55;;
20036;SDS011;10179;42.640;23.312;2022-08-19T14:23:30;5.30;;;3.47;;
20036;SDS011;10179;42.640;23.312;2022-08-19T14:26:12;6.53;;;3.63;;
20036;SDS011;10179;42.640;23.312;2022-08-19T14:28:40;6.93;;;4.13;;
20036;SDS011;10179;42.640;23.312;2022-08-19T14:31:07;11.88;;;3.72;;
20036;SDS011;10179;42.640;23.312;2022-08-19T14:33:36;5.68;;;3.85;;
20036;SDS011;10179;42.640;23.312;2022-08-19T14:36:02;5.97;;;3.80;;
20036;SDS011;10179;42.640;23.312;2022-08-19T14:38:29;4.70;;;3.55;;
20036;SDS011;10179;42.640;23.312;2022-08-19T14:41:05;7.25;;;4.40;;
20036;SDS011;10179;42.640;23.312;2022-08-19T14:43:41;11.52;;;4.30;;
20036;SDS011;10179;42.640;23.312;2022-08-19T14:46:07;6.75;;;4.03;;